Αρχική σελίδα
METAR-TAF:

METAR-TAF

Αεροδρόμια :

Νουακσότ, Μαυριτανία

γεωγραφικό πλάτος: 18-18-36N, γεωγραφικό μήκος: 015-58-11W, υψόμετρο: 3 μ

Παρών καιρός

Η αναφορά έγινε 41 λεπτά πριν, στις 21:00 UTC
Άνεμος 7 kt από Δ/ΝΔ
Θερμοκρασία 23°C
Υγρασία 78%
Πίεση 1012 hPa
Ορατότητα: 8000 μ

METAR: GQNO 232100Z 24007KT 8000 NSC 23/19 Q1012 NOSIG

Χρόνος: 21:41 (21:41 UTC)

Πρόγνωση Καιρού

Η αναφορά έγινε 4 ώρες και 41 λεπτά πριν, στις 17:00 UTC
Η πρόγνωση ισχύει από τις 23 στις 18 UTC έως τις 24 στις 24 UTC
Άνεμος 14 kt από
Ορατότητα: 6000 μ
Καθιστάμενος
από 24 στις 07 UTC έως τις 24 στις 09 UTC
Άνεμος 10 kt από Δ
Καθιστάμενος
από 24 στις 14 UTC έως τις 24 στις 16 UTC
Άνεμος 12 kt από Β/BΔ

TAF: GQNO 231700Z 2318/2424 32014KT 6000 NSC BECMG 2407/2409 26010KT BECMG 2414/2416 33012KT

Μετεωρολογικές αναφορές και προγνώσεις για περισσότερα από 4000 αεροδρόμια (δελτία METAR και TAF).

Οι διαθέσιμοι σταθμοί απεικονίζονται στο χάρτη με κίτρινες και κόκκινες κουκκίδες.

Μετακινήστε το ποντίκι πάνω από τις κουκκίδες για να δείτε το όνομα του σταθμού.

Στη συνέχεια, κάντε κλικ για να δείτε τις μετεωρολογικές αναφορές και τις προγνώσεις καιρού.

Για να αλλάξετε το χάρτη: κάντε κλικ στα πράσινα κουμπιά με τον μαύρο σταυρό για να ζουμάρετε, στο πράσινο κουμπί με την παύλα για να αφαιρέσετε το ζουμ ή στα πράσινα βέλη για να αντιπαραβάλλετε χάρτες.


METAR-TAF: